createdAt,value
2023-03-03T00:01:55.345Z,0.88
2023-03-03T00:04:57.032Z,0.88
2023-03-03T00:07:58.610Z,0.89
2023-03-03T00:11:00.982Z,0.88
2023-03-03T00:14:02.587Z,0.86
2023-03-03T00:17:21.140Z,0.86
2023-03-03T00:20:35.098Z,0.84
2023-03-03T00:23:39.238Z,0.84
2023-03-03T00:26:42.807Z,0.84
2023-03-03T00:29:53.421Z,0.85
2023-03-03T00:32:56.110Z,0.85
2023-03-03T00:36:06.843Z,0.84
2023-03-03T00:39:30.089Z,0.83
2023-03-03T00:42:35.610Z,0.83
2023-03-03T00:45:54.753Z,0.83
2023-03-03T00:48:56.344Z,0.83
2023-03-03T00:51:57.930Z,0.82
2023-03-03T00:54:59.511Z,0.81
2023-03-03T00:58:01.232Z,0.80
2023-03-03T01:01:02.775Z,0.81
2023-03-03T01:04:04.401Z,0.82
2023-03-03T01:07:05.967Z,0.82
2023-03-03T01:10:08.241Z,0.82
2023-03-03T01:13:10.592Z,0.82
2023-03-03T01:16:12.297Z,0.83
2023-03-03T01:19:13.845Z,0.82
2023-03-03T01:22:15.811Z,0.81
2023-03-03T01:25:17.660Z,0.80
2023-03-03T01:28:19.321Z,0.81
2023-03-03T01:31:20.932Z,0.82
2023-03-03T01:34:22.504Z,0.82
2023-03-03T01:37:24.319Z,0.82
2023-03-03T01:40:29.345Z,0.82
2023-03-03T01:43:32.621Z,0.82
2023-03-03T01:46:46.605Z,0.82
2023-03-03T01:49:57.870Z,0.80
2023-03-03T01:53:03.220Z,0.77
2023-03-03T01:56:07.943Z,0.75
2023-03-03T01:59:22.202Z,0.74
2023-03-03T02:02:25.487Z,0.72
2023-03-03T02:05:28.012Z,0.68
2023-03-03T02:08:39.550Z,0.66
2023-03-03T02:11:44.472Z,0.63
2023-03-03T02:14:46.237Z,0.60
2023-03-03T02:17:50.878Z,0.58
2023-03-03T02:21:04.162Z,0.57
2023-03-03T02:24:14.528Z,0.55
2023-03-03T02:27:16.086Z,0.54
2023-03-03T02:30:24.309Z,0.53
2023-03-03T02:33:26.299Z,0.54
2023-03-03T02:36:33.173Z,0.54
2023-03-03T02:39:34.869Z,0.51
2023-03-03T02:42:36.828Z,0.50
2023-03-03T02:45:43.895Z,0.48
2023-03-03T02:48:45.448Z,0.48
2023-03-03T02:51:47.043Z,0.47
2023-03-03T02:54:48.632Z,0.44
2023-03-03T02:57:50.161Z,0.44
2023-03-03T03:00:51.789Z,0.42
2023-03-03T03:03:53.558Z,0.42
2023-03-03T03:06:56.420Z,0.42
2023-03-03T03:09:57.959Z,0.42
2023-03-03T03:12:59.497Z,0.43
2023-03-03T03:16:01.309Z,0.43
2023-03-03T03:19:04.143Z,0.44
2023-03-03T03:22:05.698Z,0.45
2023-03-03T03:25:07.645Z,0.46
2023-03-03T03:28:09.241Z,0.48
2023-03-03T03:31:10.864Z,0.48
2023-03-03T03:34:12.464Z,0.50
2023-03-03T03:37:14.413Z,0.51
2023-03-03T03:40:16.157Z,0.52
2023-03-03T03:43:17.931Z,0.51
2023-03-03T03:46:19.577Z,0.52
2023-03-03T03:49:21.665Z,0.52
2023-03-03T03:52:23.291Z,0.53
2023-03-03T03:55:24.893Z,0.52
2023-03-03T03:58:26.615Z,0.54
2023-03-03T04:01:28.267Z,0.53
2023-03-03T04:04:29.879Z,0.54
2023-03-03T04:07:31.437Z,0.55
2023-03-03T04:10:32.999Z,0.55
2023-03-03T04:13:35.527Z,0.56
2023-03-03T04:16:37.137Z,0.55
2023-03-03T04:19:38.672Z,0.56
2023-03-03T04:22:40.305Z,0.55
2023-03-03T04:25:41.846Z,0.55
2023-03-03T04:28:43.388Z,0.54
2023-03-03T04:31:44.929Z,0.54
2023-03-03T04:34:52.957Z,0.52
2023-03-03T04:37:57.376Z,0.53
2023-03-03T04:40:58.997Z,0.54
2023-03-03T04:44:00.527Z,0.55
2023-03-03T04:47:02.100Z,0.57
2023-03-03T04:50:04.421Z,0.58
2023-03-03T04:53:05.978Z,0.59
2023-03-03T04:56:08.049Z,0.60
2023-03-03T04:59:09.690Z,0.60
2023-03-03T05:02:13.047Z,0.60
2023-03-03T05:05:14.759Z,0.61
2023-03-03T05:08:16.746Z,0.62
2023-03-03T05:11:18.317Z,0.62
2023-03-03T05:14:19.882Z,0.63
2023-03-03T05:17:21.412Z,0.65
2023-03-03T05:20:23.903Z,0.66
2023-03-03T05:23:25.896Z,0.67
2023-03-03T05:26:27.411Z,0.67
2023-03-03T05:29:31.533Z,0.67
2023-03-03T05:32:33.213Z,0.69
2023-03-03T05:35:35.173Z,0.69
2023-03-03T05:38:36.866Z,0.67
2023-03-03T05:41:38.864Z,0.70
2023-03-03T05:44:40.601Z,0.72
2023-03-03T05:47:42.406Z,0.71
2023-03-03T05:50:43.979Z,0.71
2023-03-03T05:53:45.596Z,0.72
2023-03-03T05:56:47.206Z,0.73
2023-03-03T05:59:48.949Z,0.74
2023-03-03T06:02:50.490Z,0.75
2023-03-03T06:05:52.117Z,0.77
2023-03-03T06:08:56.843Z,0.78
2023-03-03T06:11:59.010Z,0.78
2023-03-03T06:15:00.550Z,0.78
2023-03-03T06:18:02.324Z,0.79
2023-03-03T06:21:04.091Z,0.81
2023-03-03T06:24:06.288Z,0.82
2023-03-03T06:27:07.883Z,0.82
2023-03-03T06:30:10.135Z,0.83
2023-03-03T06:33:11.846Z,0.85
2023-03-03T06:36:13.390Z,0.87
2023-03-03T06:39:14.981Z,0.90
2023-03-03T06:42:16.491Z,0.92
2023-03-03T06:45:18.110Z,0.95
2023-03-03T06:48:19.664Z,0.97
2023-03-03T06:51:33.603Z,1.00
2023-03-03T06:54:35.273Z,1.01
2023-03-03T06:57:37.553Z,1.04
2023-03-03T07:00:40.822Z,1.09
2023-03-03T07:03:42.361Z,1.15
2023-03-03T07:06:43.922Z,1.20
2023-03-03T07:09:48.012Z,1.29
2023-03-03T07:12:49.942Z,1.39
2023-03-03T07:15:54.312Z,1.50
2023-03-03T07:19:03.603Z,1.66
2023-03-03T07:22:14.148Z,1.76
2023-03-03T07:25:22.000Z,1.84
2023-03-03T07:28:29.225Z,1.85
2023-03-03T07:31:41.618Z,1.87
2023-03-03T07:34:52.265Z,2.33
2023-03-03T07:37:54.031Z,2.54
2023-03-03T07:40:58.290Z,2.65
2023-03-03T07:44:06.601Z,2.77
2023-03-03T07:47:30.511Z,2.80
2023-03-03T07:50:32.485Z,2.76
2023-03-03T07:53:36.462Z,2.68
2023-03-03T07:56:38.102Z,2.59
2023-03-03T07:59:48.839Z,2.51
2023-03-03T08:02:56.397Z,2.44
2023-03-03T08:05:57.963Z,2.37
2023-03-03T08:09:41.699Z,2.29
2023-03-03T08:12:45.153Z,2.18
2023-03-03T08:15:50.689Z,2.11
2023-03-03T08:18:53.926Z,2.05
2023-03-03T08:22:12.282Z,1.99
2023-03-03T08:25:13.876Z,1.94
2023-03-03T08:28:16.306Z,1.88
2023-03-03T08:31:30.781Z,1.84
2023-03-03T08:34:36.107Z,1.79
2023-03-03T08:37:37.876Z,1.78
2023-03-03T08:40:39.586Z,1.81
2023-03-03T08:43:41.444Z,1.82
2023-03-03T08:46:44.225Z,1.83
2023-03-03T08:49:45.837Z,1.82
2023-03-03T08:52:48.437Z,1.85
2023-03-03T08:55:51.360Z,1.86
2023-03-03T08:59:02.092Z,1.88
2023-03-03T09:02:05.806Z,1.87
2023-03-03T09:05:08.365Z,1.88
2023-03-03T09:08:10.842Z,1.89
2023-03-03T09:11:13.478Z,1.93
2023-03-03T09:14:18.948Z,1.93
2023-03-03T09:17:26.084Z,1.94
2023-03-03T09:20:33.729Z,1.98
2023-03-03T09:23:56.216Z,2.01
2023-03-03T09:26:59.307Z,2.03
2023-03-03T09:30:30.887Z,2.02
2023-03-03T09:33:44.612Z,2.05
2023-03-03T09:36:46.237Z,2.10
2023-03-03T09:39:53.510Z,2.16
2023-03-03T09:43:24.055Z,2.20
2023-03-03T09:46:28.390Z,2.22
2023-03-03T09:49:39.455Z,2.26
2023-03-03T09:53:01.746Z,2.37
2023-03-03T09:56:12.498Z,2.51
2023-03-03T09:59:28.025Z,2.65
2023-03-03T10:02:32.374Z,2.94
2023-03-03T10:05:52.002Z,3.49
2023-03-03T10:08:56.593Z,4.13
2023-03-03T10:12:13.623Z,4.65
2023-03-03T10:15:15.087Z,5.09
2023-03-03T10:18:33.896Z,5.40
2023-03-03T10:21:51.124Z,5.40
2023-03-03T10:25:20.511Z,5.29
2023-03-03T10:28:40.461Z,5.20
2023-03-03T10:31:44.922Z,5.14
2023-03-03T10:35:14.197Z,5.10
2023-03-03T10:38:46.656Z,5.00
2023-03-03T10:42:22.331Z,4.95
2023-03-03T10:45:53.253Z,4.87
2023-03-03T10:49:14.732Z,4.82
2023-03-03T10:52:16.287Z,4.78
2023-03-03T10:55:22.891Z,4.79
2023-03-03T10:58:56.545Z,4.78
2023-03-03T11:02:02.172Z,4.75
2023-03-03T11:05:16.994Z,4.76
2023-03-03T11:08:34.061Z,4.74
2023-03-03T11:11:57.600Z,4.71
2023-03-03T11:14:59.390Z,4.70
2023-03-03T11:18:37.157Z,4.70
2023-03-03T11:21:51.423Z,4.69
2023-03-03T11:25:05.344Z,4.69
2023-03-03T11:28:13.014Z,4.73
2023-03-03T11:31:33.626Z,4.76
2023-03-03T11:35:08.028Z,4.79
2023-03-03T11:38:09.542Z,4.80
2023-03-03T11:41:35.612Z,4.80
2023-03-03T11:45:17.912Z,4.82
2023-03-03T11:48:25.479Z,4.85
2023-03-03T11:51:43.140Z,4.87
2023-03-03T11:54:54.441Z,4.89
2023-03-03T11:58:08.128Z,4.89
2023-03-03T12:01:30.923Z,4.87
2023-03-03T12:04:39.398Z,4.85
2023-03-03T12:07:50.949Z,4.83
2023-03-03T12:11:04.376Z,4.86
2023-03-03T12:14:13.472Z,4.91
2023-03-03T12:17:33.163Z,4.95
2023-03-03T12:21:16.370Z,4.97
2023-03-03T12:24:55.584Z,4.96
2023-03-03T12:28:18.290Z,4.94
2023-03-03T12:32:00.017Z,4.93
2023-03-03T12:35:15.821Z,4.91
2023-03-03T12:38:44.587Z,4.91
2023-03-03T12:41:52.526Z,4.90
2023-03-03T12:45:10.617Z,4.91
2023-03-03T12:48:30.114Z,4.86
2023-03-03T12:51:37.578Z,4.85
2023-03-03T12:55:12.569Z,4.80
2023-03-03T12:58:20.494Z,4.76
2023-03-03T13:02:01.013Z,4.74
2023-03-03T13:05:07.981Z,4.70
2023-03-03T13:08:18.642Z,4.71
2023-03-03T13:11:42.412Z,4.70
2023-03-03T13:14:50.220Z,4.72
2023-03-03T13:18:29.738Z,4.76
2023-03-03T13:22:01.519Z,5.04
2023-03-03T13:25:40.141Z,5.39
2023-03-03T13:28:59.936Z,5.54
2023-03-03T13:32:22.679Z,5.45
2023-03-03T13:35:46.025Z,5.36
2023-03-03T13:38:56.662Z,5.28
2023-03-03T13:42:26.540Z,5.16
2023-03-03T13:45:35.304Z,5.06
2023-03-03T13:49:05.930Z,5.00
2023-03-03T13:52:15.173Z,4.92
2023-03-03T13:55:29.439Z,4.86
2023-03-03T13:58:38.495Z,4.84
2023-03-03T14:02:07.672Z,4.81
2023-03-03T14:05:09.181Z,4.79
2023-03-03T14:08:48.060Z,4.78
2023-03-03T14:11:57.755Z,4.77
2023-03-03T14:15:04.223Z,4.74
2023-03-03T14:18:34.504Z,4.72
2023-03-03T14:21:43.260Z,4.70
2023-03-03T14:25:07.690Z,4.73
2023-03-03T14:28:14.124Z,4.73
2023-03-03T14:31:21.752Z,4.76
2023-03-03T14:34:23.314Z,4.76
2023-03-03T14:37:24.861Z,4.78
2023-03-03T14:40:35.611Z,4.81
2023-03-03T14:43:40.833Z,4.80
2023-03-03T14:46:45.013Z,4.80
2023-03-03T14:49:46.878Z,4.82
2023-03-03T14:53:08.623Z,4.81
2023-03-03T14:56:24.226Z,4.80
2023-03-03T14:59:27.074Z,4.78
2023-03-03T15:02:38.836Z,4.77
2023-03-03T15:05:50.000Z,4.77
2023-03-03T15:08:51.569Z,4.78
2023-03-03T15:11:54.641Z,4.76
2023-03-03T15:15:20.809Z,4.76
2023-03-03T15:18:22.587Z,4.77
2023-03-03T15:21:32.238Z,4.75
2023-03-03T15:25:07.911Z,4.76
2023-03-03T15:28:33.013Z,4.76
2023-03-03T15:31:35.219Z,4.75
2023-03-03T15:34:36.816Z,4.75
2023-03-03T15:37:55.860Z,4.76
2023-03-03T15:41:00.301Z,4.78
2023-03-03T15:44:14.870Z,4.77
2023-03-03T15:47:24.265Z,4.76
2023-03-03T15:50:35.393Z,4.74
2023-03-03T15:53:52.899Z,4.74
2023-03-03T15:56:58.933Z,4.72
2023-03-03T16:00:03.652Z,4.69
2023-03-03T16:03:20.830Z,4.69
2023-03-03T16:06:26.611Z,4.70
2023-03-03T16:09:56.556Z,4.70
2023-03-03T16:13:06.909Z,4.67
2023-03-03T16:16:17.441Z,4.64
2023-03-03T16:19:37.664Z,4.63
2023-03-03T16:22:45.185Z,4.60
2023-03-03T16:26:05.228Z,4.59
2023-03-03T16:29:18.522Z,4.58
2023-03-03T16:33:04.880Z,4.54
2023-03-03T16:36:18.517Z,4.48
2023-03-03T16:39:44.413Z,4.44
2023-03-03T16:42:53.177Z,4.43
2023-03-03T16:46:06.545Z,4.41
2023-03-03T16:49:36.063Z,4.37
2023-03-03T16:53:14.872Z,4.34
2023-03-03T16:56:38.852Z,4.28
2023-03-03T16:59:56.259Z,4.25
2023-03-03T17:03:09.585Z,4.20
2023-03-03T17:06:29.504Z,4.16
2023-03-03T17:09:34.034Z,4.30
2023-03-03T17:13:01.875Z,4.28
2023-03-03T17:16:09.458Z,4.25
2023-03-03T17:20:00.786Z,4.23
2023-03-03T17:23:26.425Z,4.17
2023-03-03T17:26:56.765Z,4.13
2023-03-03T17:30:04.245Z,4.10
2023-03-03T17:33:24.062Z,4.09
2023-03-03T17:36:25.614Z,4.07
2023-03-03T17:39:38.671Z,4.06
2023-03-03T17:43:17.578Z,4.06
2023-03-03T17:46:28.068Z,4.05
2023-03-03T17:49:54.757Z,4.04
2023-03-03T17:53:14.274Z,4.04
2023-03-03T17:56:28.172Z,4.04
2023-03-03T18:00:12.106Z,4.02
2023-03-03T18:04:02.031Z,4.00
2023-03-03T18:07:06.510Z,3.98
2023-03-03T18:10:33.131Z,3.99
2023-03-03T18:13:51.281Z,3.99
2023-03-03T18:16:55.874Z,3.98
2023-03-03T18:20:00.683Z,3.98
2023-03-03T18:23:20.509Z,3.97
2023-03-03T18:26:42.064Z,3.97
2023-03-03T18:30:24.997Z,3.99
2023-03-03T18:33:35.887Z,4.06
2023-03-03T18:36:51.817Z,4.13
2023-03-03T18:40:02.197Z,4.19
2023-03-03T18:43:39.912Z,4.25
2023-03-03T18:46:46.875Z,4.30
2023-03-03T18:49:53.014Z,4.28
2023-03-03T18:53:19.325Z,4.27
2023-03-03T18:57:05.095Z,4.28
2023-03-03T19:00:27.362Z,4.29
2023-03-03T19:03:28.931Z,4.32
2023-03-03T19:06:36.420Z,4.33
2023-03-03T19:10:02.880Z,4.31
2023-03-03T19:13:27.452Z,4.33
2023-03-03T19:16:30.845Z,4.37
2023-03-03T19:19:34.938Z,4.38
2023-03-03T19:22:52.039Z,4.37
2023-03-03T19:26:24.775Z,4.39
2023-03-03T19:29:32.340Z,4.37
2023-03-03T19:33:12.560Z,4.35
2023-03-03T19:36:36.013Z,4.33
2023-03-03T19:39:55.310Z,4.32
2023-03-03T19:43:27.212Z,4.30
2023-03-03T19:46:56.308Z,4.31
2023-03-03T19:50:05.328Z,4.29
2023-03-03T19:53:30.908Z,4.31
2023-03-03T19:56:38.325Z,4.32
2023-03-03T19:59:53.476Z,4.33
2023-03-03T20:03:03.965Z,4.30
2023-03-03T20:06:08.448Z,4.28
2023-03-03T20:09:29.791Z,4.27
2023-03-03T20:12:53.149Z,4.24
2023-03-03T20:16:16.102Z,4.26
2023-03-03T20:19:41.835Z,4.24
2023-03-03T20:22:58.418Z,4.24
2023-03-03T20:26:15.477Z,4.22
2023-03-03T20:29:37.336Z,4.25
2023-03-03T20:33:06.906Z,4.23
2023-03-03T20:36:29.924Z,4.21
2023-03-03T20:40:02.697Z,4.18
2023-03-03T20:43:34.034Z,4.13
2023-03-03T20:46:47.723Z,4.08
2023-03-03T20:50:12.113Z,4.07
2023-03-03T20:53:34.730Z,4.07
2023-03-03T20:56:44.258Z,4.05
2023-03-03T21:00:00.563Z,4.06
2023-03-03T21:03:08.010Z,4.06
2023-03-03T21:06:21.038Z,4.06
2023-03-03T21:09:29.346Z,4.05
2023-03-03T21:12:31.838Z,4.04
2023-03-03T21:15:35.674Z,4.06
2023-03-03T21:18:37.256Z,4.07
2023-03-03T21:21:45.293Z,4.06
2023-03-03T21:24:50.669Z,4.06
2023-03-03T21:27:52.219Z,4.04
2023-03-03T21:31:10.183Z,4.00
2023-03-03T21:34:27.059Z,3.97
2023-03-03T21:37:50.304Z,3.94
2023-03-03T21:41:00.384Z,3.94
2023-03-03T21:44:01.948Z,3.93
2023-03-03T21:47:05.159Z,3.92
2023-03-03T21:50:07.559Z,3.91
2023-03-03T21:53:09.120Z,3.91
2023-03-03T21:56:13.870Z,3.89
2023-03-03T21:59:16.214Z,3.88
2023-03-03T22:02:17.798Z,3.88
2023-03-03T22:05:19.364Z,3.85
2023-03-03T22:08:22.656Z,3.83
2023-03-03T22:11:24.433Z,3.83
2023-03-03T22:14:26.118Z,3.83
2023-03-03T22:17:28.173Z,3.80
2023-03-03T22:20:29.998Z,3.78
2023-03-03T22:23:32.767Z,3.79
2023-03-03T22:26:35.188Z,3.78
2023-03-03T22:29:36.729Z,3.76
2023-03-03T22:32:38.389Z,3.78
2023-03-03T22:35:40.024Z,3.78
2023-03-03T22:38:41.954Z,3.78
2023-03-03T22:41:43.525Z,3.77
2023-03-03T22:44:46.088Z,3.76
2023-03-03T22:47:47.703Z,3.76
2023-03-03T22:50:49.597Z,3.77
2023-03-03T22:53:51.178Z,3.74
2023-03-03T22:56:52.686Z,3.75
2023-03-03T22:59:54.270Z,3.76
2023-03-03T23:02:55.915Z,3.77
2023-03-03T23:05:57.455Z,3.75
2023-03-03T23:08:59.021Z,3.75
2023-03-03T23:12:00.581Z,3.75
2023-03-03T23:15:02.232Z,3.76
2023-03-03T23:18:04.104Z,3.76
2023-03-03T23:21:05.737Z,3.76
2023-03-03T23:24:07.859Z,3.76
2023-03-03T23:27:10.981Z,3.76
2023-03-03T23:30:15.322Z,3.74
2023-03-03T23:33:17.103Z,3.73
2023-03-03T23:36:18.651Z,3.72
2023-03-03T23:39:20.236Z,3.73
2023-03-03T23:42:21.821Z,3.74
2023-03-03T23:45:23.515Z,3.73
2023-03-03T23:48:25.275Z,3.73
2023-03-03T23:51:26.801Z,3.72
2023-03-03T23:54:28.585Z,3.69
2023-03-03T23:57:30.167Z,3.70
